Time;durP1;ratioP1;P1;durP2;ratioP2;P2;SDS_P1;SDS_P2;PMS_P1;PMS_P2;Temp;Humidity;BMP_temperature;BMP_pressure;BME280_temperature;BME280_humidity;BME280_pressure;Samples;Min_cycle;Max_cycle;Signal;HPM_P1;HPM_P2
2022/04/15 00:01:43;;;;;;;1.50;1.40;;;24.50;57.60;;;;;;5036446;28;20434;-83
2022/04/15 00:04:09;;;;;;;1.50;1.40;;;24.50;57.70;;;;;;5036233;28;20447;-86
2022/04/15 00:06:37;;;;;;;1.50;1.33;;;24.50;57.70;;;;;;5036196;28;20445;-84
2022/04/15 00:09:04;;;;;;;1.30;1.20;;;24.50;57.70;;;;;;5036180;28;20470;-84
2022/04/15 00:11:32;;;;;;;1.80;1.70;;;24.50;57.70;;;;;;5035930;28;20439;-83
2022/04/15 00:14:00;;;;;;;1.50;1.40;;;24.50;57.70;;;;;;5036213;28;20808;-86
2022/04/15 00:16:27;;;;;;;1.63;1.53;;;24.50;57.70;;;;;;5036109;28;20470;-84
2022/04/15 00:18:54;;;;;;;1.40;1.30;;;24.50;57.70;;;;;;5036007;28;20952;-84
2022/04/15 00:21:21;;;;;;;1.77;1.67;;;24.50;57.70;;;;;;5035917;28;20949;-83
2022/04/15 00:23:54;;;;;;;1.67;1.57;;;24.50;57.70;;;;;;5035608;28;20443;-83
2022/04/15 00:26:21;;;;;;;1.60;1.40;;;24.50;57.70;;;;;;5035843;28;20445;-84
2022/04/15 00:28:48;;;;;;;1.50;1.40;;;24.40;57.60;;;;;;5035575;28;20434;-86
2022/04/15 00:31:14;;;;;;;1.37;1.27;;;24.50;57.70;;;;;;5035579;28;20443;-84
2022/04/15 00:33:41;;;;;;;1.70;1.60;;;24.40;57.60;;;;;;5035589;28;20952;-83
2022/04/15 00:36:08;;;;;;;1.70;1.60;;;24.50;57.60;;;;;;5035590;28;20496;-84
2022/04/15 00:38:35;;;;;;;1.33;1.23;;;24.50;57.60;;;;;;5035791;28;20445;-85
2022/04/15 00:41:03;;;;;;;1.50;1.40;;;24.50;57.60;;;;;;5035430;28;20450;-87
2022/04/15 00:43:30;;;;;;;1.57;1.47;;;24.50;57.50;;;;;;5035526;28;20463;-83
2022/04/15 00:46:06;;;;;;;1.80;1.70;;;24.50;57.60;;;;;;5035586;28;20788;-84
2022/04/15 00:48:33;;;;;;;1.60;1.50;;;24.50;57.50;;;;;;5035614;28;20546;-84
2022/04/15 00:51:00;;;;;;;1.60;1.30;;;24.50;57.50;;;;;;5035291;28;20449;-84
2022/04/15 00:53:29;;;;;;;1.50;1.40;;;24.50;57.50;;;;;;5035272;28;20854;-84
2022/04/15 00:56:00;;;;;;;1.53;1.43;;;24.50;57.50;;;;;;5017669;28;20495;-85
2022/04/15 00:58:29;;;;;;;1.57;1.47;;;24.50;57.50;;;;;;5035247;28;20435;-84
2022/04/15 01:00:58;;;;;;;1.33;1.23;;;24.50;57.50;;;;;;5035063;28;20447;-84
2022/04/15 01:03:25;;;;;;;1.40;1.30;;;24.50;57.50;;;;;;5035359;28;20446;-84
2022/04/15 01:05:58;;;;;;;1.50;1.20;;;24.50;57.50;;;;;;5035199;28;20447;-87
2022/04/15 01:08:28;;;;;;;1.90;1.80;;;24.50;57.50;;;;;;5035010;28;20442;-84
2022/04/15 01:10:58;;;;;;;1.57;1.47;;;24.50;57.50;;;;;;5034866;28;20620;-85
2022/04/15 01:13:25;;;;;;;1.57;1.47;;;24.50;57.40;;;;;;5035121;28;20680;-84
2022/04/15 01:15:55;;;;;;;1.67;1.57;;;24.50;57.50;;;;;;5017180;28;20801;-84
2022/04/15 01:18:22;;;;;;;1.53;1.43;;;24.50;57.50;;;;;;5034583;28;20453;-85
2022/04/15 01:20:50;;;;;;;1.70;1.60;;;24.50;57.50;;;;;;5034679;28;20447;-84
2022/04/15 01:23:19;;;;;;;1.50;1.40;;;24.50;57.40;;;;;;5034940;28;20434;-84
2022/04/15 01:25:46;;;;;;;1.53;1.43;;;24.50;57.50;;;;;;5034648;28;20957;-84
2022/04/15 01:28:16;;;;;;;1.70;1.60;;;24.50;57.40;;;;;;5034779;28;20435;-84
2022/04/15 01:30:44;;;;;;;1.90;1.80;;;24.50;57.50;;;;;;5034440;28;20486;-84
2022/04/15 01:33:11;;;;;;;1.67;1.57;;;24.50;57.50;;;;;;5034571;28;20443;-86
2022/04/15 01:35:37;;;;;;;1.77;1.67;;;24.50;57.40;;;;;;5034819;28;20805;-84
2022/04/15 01:38:07;;;;;;;2.90;1.73;;;24.50;57.40;;;;;;5034575;28;20473;-84
2022/04/15 01:40:35;;;;;;;2.10;1.90;;;24.50;57.40;;;;;;5034420;28;20446;-86
2022/04/15 01:43:03;;;;;;;1.70;1.60;;;24.40;57.40;;;;;;5034384;28;20434;-84
2022/04/15 01:45:30;;;;;;;1.60;1.50;;;24.40;58.00;;;;;;5034279;28;20473;-84
2022/04/15 01:47:56;;;;;;;1.40;1.30;;;24.40;57.30;;;;;;5034459;28;20438;-84
2022/04/15 01:50:24;;;;;;;1.63;1.53;;;24.40;57.30;;;;;;5034424;28;20486;-84
2022/04/15 01:52:51;;;;;;;1.70;1.60;;;24.50;57.30;;;;;;5034521;28;20520;-87
2022/04/15 01:55:18;;;;;;;1.60;1.50;;;24.50;57.40;;;;;;5034234;28;20434;-85
2022/04/15 01:57:46;;;;;;;2.70;1.87;;;24.40;57.30;;;;;;5034266;28;20449;-83
2022/04/15 02:00:14;;;;;;;1.90;1.80;;;24.40;57.30;;;;;;5033893;28;20450;-84
2022/04/15 02:02:40;;;;;;;1.53;1.43;;;24.40;57.30;;;;;;5033951;28;20451;-84
2022/04/15 02:05:08;;;;;;;2.03;1.70;;;24.40;57.40;;;;;;5033901;28;20451;-84
2022/04/15 02:07:35;;;;;;;1.50;1.40;;;24.40;57.40;;;;;;5033957;28;20438;-84
2022/04/15 02:10:02;;;;;;;1.50;1.40;;;24.40;57.60;;;;;;5033898;28;20516;-87
2022/04/15 02:12:29;;;;;;;1.63;1.53;;;24.40;57.20;;;;;;5033691;28;20450;-84
2022/04/15 02:14:57;;;;;;;1.67;1.57;;;24.40;57.20;;;;;;5033715;28;20455;-84
2022/04/15 02:17:24;;;;;;;1.53;1.43;;;24.40;57.20;;;;;;5033889;28;20450;-84
2022/04/15 02:19:52;;;;;;;2.07;1.67;;;24.40;57.20;;;;;;5033710;28;20447;-85
2022/04/15 02:22:19;;;;;;;1.30;1.20;;;24.40;57.30;;;;;;5016002;28;20534;-84
2022/04/15 02:24:46;;;;;;;1.67;1.57;;;24.40;57.20;;;;;;5033577;28;20446;-84
2022/04/15 02:27:12;;;;;;;1.70;1.60;;;24.40;57.30;;;;;;5033923;28;20807;-84
2022/04/15 02:29:39;;;;;;;1.60;1.50;;;24.40;57.20;;;;;;5032836;28;20485;-84
2022/04/15 02:32:09;;;;;;;1.70;1.60;;;24.40;57.20;;;;;;5033565;28;20446;-84
2022/04/15 02:34:36;;;;;;;1.60;1.50;;;24.40;57.20;;;;;;5033597;28;20435;-84
2022/04/15 02:37:03;;;;;;;1.93;1.83;;;24.40;57.30;;;;;;5033324;28;20474;-83
2022/04/15 02:39:29;;;;;;;1.50;1.30;;;24.40;57.20;;;;;;5033740;28;20450;-84
2022/04/15 02:41:56;;;;;;;1.77;1.67;;;24.40;57.20;;;;;;5033638;28;20468;-84
2022/04/15 02:44:24;;;;;;;2.47;2.27;;;24.40;57.20;;;;;;5033563;28;20469;-85
2022/04/15 02:46:52;;;;;;;2.10;1.77;;;24.40;57.20;;;;;;5033498;28;20445;-84
2022/04/15 02:49:21;;;;;;;1.97;1.87;;;24.40;57.20;;;;;;5015733;28;20443;-85
2022/04/15 02:51:47;;;;;;;1.90;1.80;;;24.40;57.10;;;;;;5033397;28;21176;-84
2022/04/15 02:54:14;;;;;;;2.20;2.00;;;24.40;57.30;;;;;;5033221;28;20449;-84
2022/04/15 02:56:41;;;;;;;1.87;1.77;;;24.40;57.20;;;;;;5033236;28;20443;-86
2022/04/15 02:59:08;;;;;;;1.70;1.60;;;24.40;57.20;;;;;;5033239;28;20431;-84
2022/04/15 03:01:34;;;;;;;1.80;1.70;;;24.40;57.20;;;;;;5033386;28;20462;-83
2022/04/15 03:04:01;;;;;;;1.90;1.80;;;24.40;57.20;;;;;;5033398;28;20441;-84
2022/04/15 03:06:29;;;;;;;2.50;2.30;;;24.40;57.20;;;;;;5033296;28;20439;-85
2022/04/15 03:08:57;;;;;;;2.10;2.00;;;24.40;57.10;;;;;;5033377;28;20441;-84
2022/04/15 03:11:23;;;;;;;2.10;2.00;;;24.40;57.20;;;;;;5033281;28;20508;-84
2022/04/15 03:13:50;;;;;;;2.43;2.33;;;24.40;57.20;;;;;;5033294;28;20469;-84
2022/04/15 03:16:17;;;;;;;2.03;1.93;;;24.40;57.10;;;;;;5033143;28;20443;-84
2022/04/15 03:18:44;;;;;;;2.00;1.90;;;24.40;57.10;;;;;;5033136;28;20452;-84
2022/04/15 03:21:11;;;;;;;1.73;1.63;;;24.40;57.20;;;;;;5033350;28;20454;-84
2022/04/15 03:23:41;;;;;;;1.83;1.73;;;24.40;57.20;;;;;;5015904;28;20438;-84
2022/04/15 03:26:09;;;;;;;2.00;1.90;;;24.40;57.20;;;;;;5033189;28;20530;-84
2022/04/15 03:28:37;;;;;;;2.30;2.20;;;24.40;57.20;;;;;;5032914;28;20435;-84
2022/04/15 03:31:05;;;;;;;1.87;1.77;;;24.40;57.10;;;;;;5032903;28;20489;-84
2022/04/15 03:33:32;;;;;;;1.70;1.60;;;24.30;57.00;;;;;;5032966;28;20922;-85
2022/04/15 03:35:59;;;;;;;2.13;2.03;;;24.30;57.00;;;;;;5015049;28;20934;-87
2022/04/15 03:38:26;;;;;;;1.90;1.80;;;24.30;57.00;;;;;;5033069;28;20439;-84
2022/04/15 03:40:54;;;;;;;2.20;2.10;;;24.30;57.10;;;;;;5034063;28;20447;-84
2022/04/15 03:43:21;;;;;;;2.33;1.97;;;24.30;57.00;;;;;;5036782;28;20465;-84
2022/04/15 03:45:48;;;;;;;1.73;1.63;;;24.30;57.00;;;;;;5036473;28;20501;-84
2022/04/15 03:48:14;;;;;;;1.70;1.60;;;24.40;57.10;;;;;;5036618;28;20473;-84
2022/04/15 03:50:41;;;;;;;1.90;1.80;;;24.30;57.10;;;;;;5036465;28;20486;-83
2022/04/15 03:53:08;;;;;;;2.40;2.30;;;24.30;57.10;;;;;;5036511;28;20442;-84
2022/04/15 03:55:35;;;;;;;1.80;1.70;;;24.30;57.10;;;;;;5036387;28;20450;-83
2022/04/15 03:58:03;;;;;;;1.80;1.70;;;24.30;57.00;;;;;;5036549;28;20434;-84
2022/04/15 04:00:30;;;;;;;1.73;1.63;;;24.30;57.00;;;;;;5036645;28;20450;-84
2022/04/15 04:02:57;;;;;;;2.17;2.07;;;24.30;57.00;;;;;;5036234;28;20453;-84
2022/04/15 04:05:24;;;;;;;1.70;1.60;;;24.30;57.00;;;;;;5018758;28;20446;-87
2022/04/15 04:07:51;;;;;;;2.00;1.87;;;24.30;56.90;;;;;;5036315;28;20796;-84
2022/04/15 04:10:18;;;;;;;1.80;1.70;;;24.30;57.00;;;;;;5035840;28;20485;-84
2022/04/15 04:12:48;;;;;;;1.87;1.77;;;24.30;56.90;;;;;;5018311;28;20513;-84
2022/04/15 04:15:16;;;;;;;2.00;1.90;;;24.30;57.00;;;;;;5036000;28;20447;-84
2022/04/15 04:17:43;;;;;;;1.90;1.80;;;24.30;57.00;;;;;;5036119;28;20934;-84
2022/04/15 04:20:12;;;;;;;1.70;1.60;;;24.20;56.90;;;;;;5036132;28;20454;-84
2022/04/15 04:22:40;;;;;;;1.57;1.47;;;24.30;57.00;;;;;;5036075;28;20529;-86
2022/04/15 04:25:09;;;;;;;1.40;1.30;;;24.20;56.90;;;;;;5035852;28;20442;-84
2022/04/15 04:27:37;;;;;;;1.83;1.73;;;24.30;57.00;;;;;;5035906;28;20445;-85
2022/04/15 04:30:04;;;;;;;1.87;1.77;;;24.20;56.90;;;;;;5018376;28;20442;-84
2022/04/15 04:32:33;;;;;;;1.40;1.30;;;24.30;57.00;;;;;;5035768;28;20451;-84
2022/04/15 04:35:00;;;;;;;1.43;1.30;;;24.30;57.00;;;;;;5035803;28;20439;-84
2022/04/15 04:37:26;;;;;;;1.47;1.37;;;24.20;57.00;;;;;;5028576;28;20481;-85
2022/04/15 04:39:53;;;;;;;1.67;1.57;;;24.20;57.00;;;;;;5035519;28;20442;-84
2022/04/15 04:42:22;;;;;;;1.60;1.50;;;24.30;57.00;;;;;;5035559;28;20442;-88
2022/04/15 04:44:55;;;;;;;1.40;1.30;;;24.30;57.00;;;;;;5035379;28;20468;-84
2022/04/15 04:47:22;;;;;;;1.57;1.47;;;24.20;56.90;;;;;;5035561;28;20455;-84
2022/04/15 04:49:52;;;;;;;1.30;1.20;;;24.20;56.90;;;;;;5035390;28;20485;-85
2022/04/15 04:52:20;;;;;;;1.60;1.50;;;24.20;56.90;;;;;;5034517;28;20442;-84
2022/04/15 04:54:47;;;;;;;1.67;1.57;;;24.20;57.00;;;;;;5035649;28;20435;-85
2022/04/15 04:57:14;;;;;;;1.70;1.60;;;24.20;56.90;;;;;;5035381;28;20934;-83
2022/04/15 04:59:40;;;;;;;1.50;1.40;;;24.20;56.90;;;;;;5035442;28;20445;-84
2022/04/15 05:02:10;;;;;;;1.20;1.10;;;24.20;57.00;;;;;;5035101;28;20454;-84
2022/04/15 05:04:37;;;;;;;2.43;1.43;;;24.20;56.90;;;;;;5035392;28;20442;-85
2022/04/15 05:07:05;;;;;;;1.20;1.10;;;24.20;56.90;;;;;;5035300;28;20436;-82
2022/04/15 05:09:32;;;;;;;1.57;1.23;;;24.20;57.00;;;;;;5035279;28;20500;-85
2022/04/15 05:11:59;;;;;;;1.33;1.23;;;24.20;56.90;;;;;;5034843;28;20482;-85
2022/04/15 05:14:26;;;;;;;1.40;1.20;;;24.20;56.90;;;;;;5034830;28;20475;-84
2022/04/15 05:16:52;;;;;;;1.40;1.30;;;24.20;57.00;;;;;;5034812;28;20444;-84
2022/04/15 05:19:19;;;;;;;1.50;1.40;;;24.20;56.90;;;;;;5034797;28;20453;-85
2022/04/15 05:21:46;;;;;;;1.47;1.37;;;24.20;56.90;;;;;;5033852;28;20439;-86
2022/04/15 05:24:14;;;;;;;1.43;1.33;;;24.20;56.90;;;;;;5034955;28;20435;-87
2022/04/15 05:26:41;;;;;;;1.27;1.17;;;24.20;57.00;;;;;;5034630;28;20437;-84
2022/04/15 05:29:08;;;;;;;1.40;1.30;;;24.20;57.00;;;;;;5034790;28;20443;-85
2022/04/15 05:31:35;;;;;;;1.37;1.27;;;24.20;56.90;;;;;;5034654;28;20981;-84
2022/04/15 05:34:02;;;;;;;1.40;1.30;;;24.20;56.90;;;;;;5034741;28;20461;-85
2022/04/15 05:36:29;;;;;;;1.33;1.23;;;24.20;56.90;;;;;;5034499;28;20474;-85
2022/04/15 05:38:56;;;;;;;1.20;1.10;;;24.20;56.90;;;;;;5034443;28;20446;-84
2022/04/15 05:41:24;;;;;;;1.30;1.20;;;24.20;57.00;;;;;;5017072;28;20439;-85
2022/04/15 05:43:51;;;;;;;1.33;1.23;;;24.20;57.00;;;;;;5034571;28;20825;-84
2022/04/15 05:46:19;;;;;;;1.30;1.17;;;24.20;57.00;;;;;;5034278;28;20450;-85
2022/04/15 05:48:46;;;;;;;1.73;1.30;;;24.20;56.90;;;;;;5034571;28;20470;-87
2022/04/15 05:51:14;;;;;;;1.27;1.17;;;24.20;56.90;;;;;;5034259;28;20482;-87
2022/04/15 05:53:40;;;;;;;1.57;1.47;;;24.20;56.80;;;;;;5034183;28;20929;-86
2022/04/15 05:56:07;;;;;;;1.47;1.37;;;24.20;56.90;;;;;;5034154;28;20457;-84
2022/04/15 05:58:35;;;;;;;1.33;1.23;;;24.20;56.80;;;;;;5034197;28;20449;-82
2022/04/15 06:01:02;;;;;;;1.30;1.20;;;24.20;56.90;;;;;;5034062;28;20458;-83
2022/04/15 06:03:32;;;;;;;3.10;1.70;;;24.20;56.90;;;;;;5033531;28;20450;-82
2022/04/15 06:05:59;;;;;;;1.50;1.40;;;24.20;56.50;;;;;;5033633;28;20447;-82
2022/04/15 06:08:26;;;;;;;1.47;1.37;;;24.10;56.30;;;;;;5043088;28;20929;-82
2022/04/15 06:10:53;;;;;;;1.27;1.17;;;24.10;56.60;;;;;;5043353;28;20481;-89
2022/04/15 06:13:22;;;;;;;1.40;1.30;;;24.10;56.80;;;;;;5039393;28;20467;-89
2022/04/15 06:15:55;;;;;;;1.70;1.60;;;24.10;56.80;;;;;;5044347;28;20857;-89
2022/04/15 06:18:23;;;;;;;1.40;1.30;;;24.10;56.80;;;;;;5047426;28;20437;-92
2022/04/15 06:20:51;;;;;;;1.50;1.40;;;24.10;56.80;;;;;;5041980;28;20434;-88
2022/04/15 06:23:20;;;;;;;1.40;1.30;;;24.10;56.50;;;;;;5053429;28;20449;-88
2022/04/15 06:25:47;;;;;;;1.17;1.07;;;24.10;56.80;;;;;;5053975;28;20484;-88
2022/04/15 06:28:14;;;;;;;1.70;1.20;;;24.10;56.80;;;;;;5048883;28;20442;-88
2022/04/15 06:30:41;;;;;;;1.87;1.10;;;24.10;56.80;;;;;;5037082;28;20872;-90
2022/04/15 06:33:09;;;;;;;1.37;1.27;;;24.10;56.80;;;;;;5034007;28;20443;-88
2022/04/15 06:35:37;;;;;;;1.20;1.10;;;24.10;56.50;;;;;;5033681;28;20443;-88
2022/04/15 06:38:04;;;;;;;1.30;1.20;;;24.10;56.90;;;;;;5052684;28;20470;-86
2022/04/15 06:40:31;;;;;;;1.23;1.13;;;24.10;57.00;;;;;;5053864;28;20445;-88
2022/04/15 06:42:57;;;;;;;1.30;1.20;;;24.10;57.00;;;;;;5053297;28;20953;-86
2022/04/15 06:45:24;;;;;;;1.20;1.10;;;24.10;57.10;;;;;;5053512;28;20452;-87
2022/04/15 06:47:51;;;;;;;2.50;1.30;;;24.10;57.00;;;;;;5053498;28;20441;-87
2022/04/15 06:50:20;;;;;;;1.73;1.33;;;24.10;57.00;;;;;;5053378;28;20446;-87
2022/04/15 06:52:47;;;;;;;3.23;1.10;;;24.10;57.00;;;;;;5053235;28;20496;-87
2022/04/15 06:55:13;;;;;;;1.37;1.27;;;24.10;57.00;;;;;;5053401;28;20437;-87
2022/04/15 06:57:40;;;;;;;4.20;1.20;;;24.10;57.10;;;;;;5053542;28;20433;-84
2022/04/15 07:00:08;;;;;;;1.10;1.00;;;24.10;57.80;;;;;;5053319;28;20449;-85
2022/04/15 07:02:36;;;;;;;1.30;1.20;;;24.10;57.20;;;;;;5053626;28;20499;-87
2022/04/15 07:05:03;;;;;;;1.13;1.03;;;24.10;56.90;;;;;;5041764;28;20446;-85
2022/04/15 07:07:35;;;;;;;1.73;1.10;;;24.10;56.80;;;;;;5039380;28;20449;-81
2022/04/15 07:10:02;;;;;;;1.23;1.13;;;24.10;57.00;;;;;;5044163;28;20427;-88
2022/04/15 07:12:29;;;;;;;1.20;1.10;;;24.10;57.00;;;;;;5033345;28;20482;-88
2022/04/15 07:14:57;;;;;;;1.33;1.23;;;24.10;57.00;;;;;;5015820;28;20463;-88
2022/04/15 07:17:24;;;;;;;1.20;1.10;;;24.10;57.20;;;;;;5037114;28;20446;-88
2022/04/15 07:19:51;;;;;;;1.00;0.90;;;24.10;57.10;;;;;;5037602;28;20518;-86
2022/04/15 07:22:18;;;;;;;1.20;1.10;;;24.10;56.90;;;;;;5037134;28;20450;-87
2022/04/15 07:24:47;;;;;;;1.20;1.10;;;24.10;57.10;;;;;;5037043;28;20529;-85
2022/04/15 07:27:14;;;;;;;2.20;1.00;;;24.10;56.90;;;;;;5036949;28;20435;-88
2022/04/15 07:29:47;;;;;;;1.20;1.10;;;24.20;57.20;;;;;;5037235;28;20439;-94
2022/04/15 07:32:21;;;;;;;1.20;1.10;;;24.20;57.00;;;;;;5052197;28;20481;-89
2022/04/15 17:57:29;;;;;;;2.00;1.60;;;23.70;56.00;;;;;;5034380;28;20405;-84
2022/04/15 17:59:56;;;;;;;1.87;1.50;;;23.60;55.70;;;;;;5034194;28;20454;-86
2022/04/15 18:02:22;;;;;;;1.60;1.50;;;23.70;55.40;;;;;;5034313;28;20443;-86
2022/04/15 18:04:49;;;;;;;1.30;1.20;;;23.70;55.50;;;;;;5034541;28;20493;-86
2022/04/15 18:07:17;;;;;;;1.73;1.33;;;23.70;55.80;;;;;;5016381;28;20776;-87
2022/04/15 18:09:43;;;;;;;2.00;1.40;;;23.70;56.20;;;;;;5016748;28;20474;-86
2022/04/15 18:12:12;;;;;;;1.23;1.13;;;23.70;56.30;;;;;;5033918;28;20502;-87
2022/04/15 18:14:40;;;;;;;1.60;1.47;;;23.70;56.30;;;;;;5034110;28;20450;-87
2022/04/15 18:17:07;;;;;;;2.60;1.20;;;23.70;56.30;;;;;;5034255;28;20451;-86
2022/04/15 18:19:34;;;;;;;1.60;1.30;;;23.70;56.30;;;;;;5034040;28;20450;-86
2022/04/15 18:22:01;;;;;;;1.30;1.10;;;23.70;56.30;;;;;;5034107;28;20476;-87
2022/04/15 18:24:28;;;;;;;1.70;1.00;;;23.70;56.30;;;;;;5033427;28;20960;-87
2022/04/15 18:26:56;;;;;;;2.13;1.43;;;23.70;56.30;;;;;;5034021;28;20435;-87
2022/04/15 18:29:23;;;;;;;1.77;1.37;;;23.80;56.90;;;;;;5033832;28;20443;-87
2022/04/15 18:31:51;;;;;;;2.50;2.30;;;23.80;56.30;;;;;;5033822;28;20497;-87
2022/04/15 18:34:18;;;;;;;2.03;1.30;;;23.80;56.40;;;;;;5033799;28;20450;-88
2022/04/15 18:36:45;;;;;;;3.20;1.20;;;23.80;56.40;;;;;;5039023;28;20469;-88
2022/04/15 18:39:11;;;;;;;1.67;1.13;;;23.80;56.40;;;;;;5053808;28;20802;-87
2022/04/15 18:41:38;;;;;;;1.40;1.30;;;23.80;56.40;;;;;;5053573;28;20449;-87
2022/04/15 18:44:07;;;;;;;1.90;1.23;;;23.80;56.50;;;;;;5053397;28;20953;-87
2022/04/15 18:46:35;;;;;;;1.20;1.03;;;23.80;56.50;;;;;;5053413;28;20521;-86
2022/04/15 18:54:33;;;;;;;1.73;1.37;;;23.80;56.70;;;;;;5053397;28;20911;-88
2022/04/15 18:57:04;;;;;;;1.60;1.23;;;23.80;56.70;;;;;;5053504;28;20500;-89
2022/04/15 18:59:30;;;;;;;1.30;1.17;;;23.80;56.80;;;;;;5053547;28;20437;-87
2022/04/15 19:01:57;;;;;;;1.50;1.30;;;23.80;56.90;;;;;;5053118;28;20456;-87
2022/04/15 19:04:27;;;;;;;2.70;1.40;;;23.80;56.90;;;;;;5053262;28;20967;-87
2022/04/15 19:06:54;;;;;;;1.60;1.37;;;23.80;57.00;;;;;;5053203;28;20438;-88
2022/04/15 19:09:23;;;;;;;1.50;1.20;;;23.80;56.90;;;;;;5053387;28;20445;-88
2022/04/15 19:11:50;;;;;;;2.03;1.33;;;23.80;57.00;;;;;;5054079;28;20477;-87
2022/04/15 19:14:17;;;;;;;1.30;1.20;;;23.80;57.00;;;;;;5057392;28;20437;-87
2022/04/15 19:16:44;;;;;;;2.03;1.40;;;23.90;57.10;;;;;;5057485;28;20441;-87
2022/04/15 19:19:11;;;;;;;3.17;1.43;;;23.90;57.10;;;;;;5046093;28;20465;-87
2022/04/15 19:21:39;;;;;;;1.40;1.30;;;23.80;57.10;;;;;;5037030;28;20517;-88
2022/04/15 19:24:07;;;;;;;1.80;1.70;;;23.90;57.10;;;;;;5037334;28;20786;-86
2022/04/15 19:26:34;;;;;;;3.43;1.93;;;23.90;57.20;;;;;;5037007;28;20525;-86
2022/04/15 19:29:01;;;;;;;1.47;1.37;;;23.90;57.30;;;;;;5037000;28;20443;-88
2022/04/15 19:31:28;;;;;;;2.63;1.70;;;23.90;57.40;;;;;;5037006;28;20891;-89
2022/04/15 19:33:55;;;;;;;2.57;1.60;;;23.80;57.30;;;;;;5036855;28;20486;-84
2022/04/15 19:36:22;;;;;;;2.23;2.03;;;23.80;57.50;;;;;;5036916;28;20952;-84
2022/04/15 19:38:50;;;;;;;1.53;1.20;;;23.80;57.50;;;;;;5037160;28;20431;-84
2022/04/15 19:41:18;;;;;;;1.40;1.30;;;23.80;57.30;;;;;;5036846;28;20439;-85
2022/04/15 19:43:44;;;;;;;3.93;1.50;;;23.80;57.30;;;;;;5036783;28;20466;-88
2022/04/15 19:46:11;;;;;;;2.50;2.07;;;23.80;57.30;;;;;;5036820;28;20478;-82
2022/04/15 19:48:39;;;;;;;3.17;2.33;;;23.80;56.20;;;;;;5037193;28;20510;-84
2022/04/15 19:51:07;;;;;;;1.87;1.77;;;23.80;55.40;;;;;;5036501;28;20453;-85
2022/04/15 19:53:34;;;;;;;3.00;1.80;;;23.80;55.90;;;;;;5036292;28;20844;-84
2022/04/15 20:01:31;;;;;;;2.00;1.80;;;23.70;56.60;;;;;;5036510;28;20786;-84
2022/04/15 20:03:58;;;;;;;4.60;1.77;;;23.70;56.90;;;;;;5036268;28;20442;-85
2022/04/15 20:06:25;;;;;;;2.37;1.50;;;23.70;57.00;;;;;;5036300;28;20439;-85
2022/04/15 20:08:53;;;;;;;3.40;2.00;;;23.70;57.00;;;;;;5036570;28;20449;-85
2022/04/15 20:11:22;;;;;;;3.00;2.03;;;23.70;56.80;;;;;;5036559;28;20441;-85
2022/04/15 20:13:49;;;;;;;1.90;1.80;;;23.70;56.80;;;;;;5036009;28;20494;-85
2022/04/15 20:16:16;;;;;;;3.50;2.00;;;23.80;56.90;;;;;;5036214;28;20438;-85
2022/04/15 20:18:43;;;;;;;2.50;2.07;;;23.80;56.90;;;;;;5036452;28;20512;-85
2022/04/15 20:21:10;;;;;;;2.20;1.80;;;23.80;56.80;;;;;;5036299;28;20447;-85
2022/04/15 20:23:37;;;;;;;1.77;1.67;;;23.80;56.70;;;;;;5035855;28;20449;-85
2022/04/15 20:26:04;;;;;;;2.27;1.70;;;23.80;56.70;;;;;;5036114;28;20455;-85
2022/04/15 20:28:34;;;;;;;2.63;1.90;;;23.80;56.80;;;;;;5036643;28;20447;-85
2022/04/15 20:31:03;;;;;;;4.40;2.10;;;23.80;57.00;;;;;;5036939;28;20485;-85
2022/04/15 20:33:29;;;;;;;2.00;1.90;;;23.80;56.80;;;;;;5036328;28;20544;-85
2022/04/15 20:35:56;;;;;;;1.60;1.50;;;23.80;56.90;;;;;;5036495;28;20454;-84
2022/04/15 20:38:23;;;;;;;1.90;1.80;;;23.80;56.80;;;;;;5036008;28;20831;-85
2022/04/15 20:40:50;;;;;;;2.40;1.70;;;23.80;56.70;;;;;;5036528;28;20934;-85
2022/04/15 20:43:17;;;;;;;2.10;2.00;;;23.80;56.70;;;;;;5035970;28;20471;-85
2022/04/15 20:45:46;;;;;;;2.10;1.70;;;23.80;56.80;;;;;;5036180;28;20492;-85
2022/04/15 20:50:53;;;;;;;1.93;1.73;;;23.80;56.60;;;;;;5034878;28;20418;-85
2022/04/15 20:53:20;;;;;;;2.63;2.43;;;23.80;56.80;;;;;;5035513;28;20494;-85
2022/04/15 20:55:46;;;;;;;1.67;1.57;;;23.80;56.60;;;;;;5035741;28;20465;-85
2022/04/15 20:58:16;;;;;;;2.20;1.90;;;23.80;56.60;;;;;;5035458;28;20771;-85
2022/04/15 21:00:43;;;;;;;2.23;1.70;;;23.80;56.60;;;;;;5035802;28;20895;-86
2022/04/15 21:03:13;;;;;;;2.40;2.20;;;23.80;56.40;;;;;;5035635;28;20797;-84
2022/04/15 21:05:40;;;;;;;2.20;2.10;;;23.80;56.50;;;;;;5035517;28;20832;-84
2022/04/15 21:08:07;;;;;;;1.90;1.80;;;23.80;56.60;;;;;;5035422;28;20474;-84
2022/04/15 21:10:34;;;;;;;1.80;1.70;;;23.80;56.60;;;;;;5035238;28;20442;-84
2022/04/15 21:13:03;;;;;;;2.43;1.90;;;23.80;56.60;;;;;;5035321;28;20526;-84
2022/04/15 21:15:30;;;;;;;1.93;1.83;;;23.80;56.40;;;;;;5035533;28;20458;-85
2022/04/15 21:17:57;;;;;;;2.13;2.00;;;23.90;56.50;;;;;;5035121;28;20449;-84
2022/04/15 21:20:28;;;;;;;1.90;1.80;;;23.80;56.50;;;;;;5035084;28;20838;-85
2022/04/15 21:22:54;;;;;;;2.63;2.43;;;23.80;56.70;;;;;;5035028;28;20438;-85
2022/04/15 21:25:21;;;;;;;2.00;1.90;;;23.80;56.70;;;;;;5034500;28;20454;-86
2022/04/15 21:27:48;;;;;;;2.30;1.80;;;23.80;56.60;;;;;;5034967;28;20442;-85
2022/04/15 21:30:15;;;;;;;2.40;2.20;;;23.80;56.70;;;;;;5017567;28;20439;-86
2022/04/15 21:32:43;;;;;;;2.27;2.07;;;23.80;56.60;;;;;;5034936;28;20491;-85
2022/04/15 21:35:09;;;;;;;1.80;1.70;;;23.80;56.50;;;;;;5034069;28;20504;-86
2022/04/15 21:37:39;;;;;;;2.23;2.03;;;23.80;56.60;;;;;;5035116;28;20573;-86
2022/04/15 21:40:07;;;;;;;2.23;2.03;;;23.80;56.30;;;;;;5034749;28;20443;-87
2022/04/15 21:42:35;;;;;;;2.30;2.10;;;23.80;56.60;;;;;;5034595;28;20477;-86
2022/04/15 21:45:03;;;;;;;1.90;1.80;;;23.80;56.40;;;;;;5016672;28;20447;-86
2022/04/15 21:47:30;;;;;;;3.40;3.10;;;23.70;56.80;;;;;;5034838;28;20454;-86
2022/04/15 21:49:57;;;;;;;5.00;2.43;;;23.70;55.80;;;;;;5034452;28;20430;-87
2022/04/15 21:52:33;;;;;;;2.63;2.43;;;23.70;55.90;;;;;;5034695;28;20427;-87
2022/04/15 21:55:01;;;;;;;2.40;2.20;;;23.70;56.00;;;;;;5034489;28;20446;-87
2022/04/15 21:57:28;;;;;;;2.10;2.00;;;23.70;56.40;;;;;;5034339;28;20463;-86
2022/04/15 21:59:56;;;;;;;1.83;1.73;;;23.70;56.50;;;;;;5035009;28;20439;-88
2022/04/15 22:02:23;;;;;;;2.70;2.27;;;23.70;56.60;;;;;;5035003;28;20770;-87
2022/04/15 22:04:51;;;;;;;2.00;1.90;;;23.70;56.60;;;;;;5034211;28;20442;-87
